Time;durP1;ratioP1;P1;durP2;ratioP2;P2;SDS_P1;SDS_P2;PMS_P1;PMS_P2;Temp;Humidity;BMP_temperature;BMP_pressure;BME280_temperature;BME280_humidity;BME280_pressure;Samples;Min_cycle;Max_cycle;Signal;HPM_P1;HPM_P2
2022/04/27 00:02:13;;;;;;;30.13;20.20;;;3.20;99.90;2.30;100765;;;;601574;238;24068;-80
2022/04/27 00:04:42;;;;;;;31.67;21.10;;;3.20;99.90;2.30;100760;;;;601753;238;24032;-79
2022/04/27 00:07:10;;;;;;;35.37;23.10;;;3.20;99.90;2.30;100764;;;;592140;238;24073;-80
2022/04/27 00:09:38;;;;;;;29.50;20.93;;;3.20;99.90;2.20;100766;;;;601411;238;24030;-80
2022/04/27 00:12:06;;;;;;;31.43;20.87;;;3.20;99.90;2.20;100763;;;;601830;238;24039;-79
2022/04/27 00:14:34;;;;;;;30.57;21.33;;;3.20;99.90;2.20;100764;;;;592363;238;24039;-80
2022/04/27 00:17:01;;;;;;;32.97;20.50;;;3.20;99.90;2.20;100765;;;;601814;238;24124;-79
2022/04/27 00:19:29;;;;;;;27.10;20.17;;;3.20;99.90;2.20;100771;;;;601816;238;24082;-79
2022/04/27 00:21:57;;;;;;;29.17;20.17;;;3.20;99.90;2.20;100768;;;;601490;238;24049;-79
2022/04/27 00:24:25;;;;;;;32.40;20.87;;;3.10;99.90;2.20;100772;;;;601290;237;24078;-80
2022/04/27 00:26:53;;;;;;;35.30;21.47;;;3.10;99.90;2.10;100773;;;;601266;238;24256;-79
2022/04/27 00:29:21;;;;;;;35.23;22.07;;;3.10;99.90;2.10;100769;;;;601380;238;24026;-79
2022/04/27 00:31:49;;;;;;;29.53;19.73;;;3.10;99.90;2.10;100772;;;;601294;238;24053;-79
2022/04/27 00:34:17;;;;;;;34.67;19.67;;;3.00;99.90;2.00;100776;;;;601472;238;24053;-78
2022/04/27 00:36:45;;;;;;;26.93;19.70;;;3.00;99.90;2.00;100780;;;;591989;238;24033;-80
2022/04/27 00:39:14;;;;;;;29.43;19.20;;;3.00;99.90;2.00;100780;;;;601793;237;24183;-79
2022/04/27 00:41:58;;;;;;;30.57;22.13;;;2.90;99.90;2.00;100781;;;;601372;238;24013;-79
2022/04/27 00:44:10;;;;;;;30.43;20.57;;;2.90;99.90;2.00;100790;;;;601509;237;24044;-79
2022/04/27 00:46:41;;;;;;;31.67;19.97;;;3.00;99.90;1.90;100789;;;;602539;238;24038;-79
2022/04/27 00:49:06;;;;;;;31.30;20.97;;;2.90;99.90;1.90;100799;;;;592422;238;24034;-79
2022/04/27 00:51:34;;;;;;;29.70;20.17;;;2.90;99.90;1.90;100800;;;;602521;238;24057;-82
2022/04/27 00:54:03;;;;;;;29.63;20.40;;;2.80;99.90;1.90;100804;;;;592859;238;24087;-80
2022/04/27 00:56:30;;;;;;;27.63;20.20;;;2.80;99.90;1.90;100803;;;;592797;238;24007;-79
2022/04/27 00:59:01;;;;;;;28.23;21.07;;;2.80;99.90;1.80;100802;;;;592964;238;24066;-80
2022/04/27 01:01:26;;;;;;;33.47;21.50;;;2.80;99.90;1.80;100803;;;;592404;238;24039;-79
2022/04/27 01:03:54;;;;;;;25.93;20.67;;;2.80;99.90;1.80;100806;;;;602036;238;24023;-79
2022/04/27 01:06:22;;;;;;;27.90;20.17;;;2.80;99.90;1.80;100801;;;;601866;238;24096;-80
2022/04/27 01:08:50;;;;;;;28.37;19.77;;;2.70;99.90;1.70;100797;;;;592617;238;24059;-80
2022/04/27 01:11:21;;;;;;;25.10;19.70;;;2.70;99.90;1.80;100796;;;;602008;238;24045;-80
2022/04/27 01:13:46;;;;;;;29.27;17.20;;;2.70;99.90;1.80;100803;;;;586830;237;35028;-79
2022/04/27 01:16:14;;;;;;;24.00;11.60;;;2.70;99.90;1.70;100799;;;;601674;238;24108;-78
2022/04/27 01:18:42;;;;;;;20.53;11.90;;;2.70;99.90;1.70;100810;;;;601478;238;24046;-80
2022/04/27 01:21:13;;;;;;;22.20;13.17;;;2.70;99.90;1.70;100802;;;;601302;238;24064;-79
2022/04/27 01:23:39;;;;;;;29.80;20.05;;;2.70;99.90;1.80;100812;;;;586378;238;35020;-79
2022/04/27 01:26:08;;;;;;;26.63;14.40;;;2.80;99.90;1.80;100812;;;;601007;238;24035;-79
2022/04/27 01:28:35;;;;;;;26.60;13.40;;;2.70;99.90;1.80;100810;;;;601246;238;24037;-79
2022/04/27 01:31:06;;;;;;;18.80;11.60;;;2.80;99.90;1.80;100809;;;;601119;238;24112;-80
2022/04/27 01:33:36;;;;;;;20.77;10.63;;;2.80;99.90;1.90;100805;;;;591782;238;24107;-80
2022/04/27 01:36:04;;;;;;;26.07;12.73;;;2.80;99.90;1.90;100809;;;;591469;238;24048;-80
2022/04/27 01:38:38;;;;;;;29.57;14.30;;;2.90;99.90;1.90;100814;;;;601121;238;24033;-79
2022/04/27 01:41:06;;;;;;;23.83;15.67;;;2.90;99.90;1.90;100825;;;;600938;238;24039;-80
2022/04/27 01:43:37;;;;;;;24.93;13.90;;;2.90;99.90;1.90;100833;;;;592086;238;24029;-79
2022/04/27 01:46:05;;;;;;;22.73;13.90;;;2.90;99.90;1.90;100823;;;;591798;238;24093;-80
2022/04/27 01:48:35;;;;;;;23.20;13.67;;;2.90;99.90;1.90;100830;;;;600736;238;24036;-79
2022/04/27 01:51:02;;;;;;;24.67;14.37;;;2.90;99.90;1.90;100814;;;;591519;238;24072;-80
2022/04/27 01:56:16;;;;;;;26.33;14.07;;;2.90;99.90;1.90;100824;;;;593415;238;24048;-79
2022/04/27 01:58:45;;;;;;;30.83;14.57;;;2.90;99.90;2.00;100822;;;;602334;238;24049;-81
2022/04/27 02:01:12;;;;;;;24.97;14.77;;;2.90;99.90;2.00;100828;;;;602213;238;24072;-80
2022/04/27 02:03:40;;;;;;;32.37;18.47;;;2.90;99.90;2.10;100819;;;;592677;238;24038;-79
2022/04/27 02:06:08;;;;;;;32.13;19.90;;;3.00;99.90;2.10;100826;;;;592626;238;24013;-80
2022/04/27 02:08:36;;;;;;;30.97;16.53;;;3.10;99.90;2.30;100825;;;;593043;238;24272;-81
2022/04/27 02:11:08;;;;;;;29.80;13.63;;;3.30;99.90;2.40;100825;;;;602406;238;24034;-80
2022/04/27 02:13:33;;;;;;;27.00;13.57;;;3.20;99.90;2.60;100832;;;;601446;238;24041;-79
2022/04/27 02:16:01;;;;;;;20.07;13.63;;;3.40;99.90;2.70;100830;;;;592220;238;24131;-80
2022/04/27 02:18:33;;;;;;;27.37;14.77;;;3.60;99.90;2.90;100831;;;;592258;238;24062;-80
2022/04/27 02:20:57;;;;;;;22.17;12.90;;;3.70;99.90;3.10;100835;;;;591995;238;24088;-80
2022/04/27 02:23:24;;;;;;;25.90;16.10;;;3.90;99.90;3.20;100830;;;;592303;238;24025;-79
2022/04/27 02:25:53;;;;;;;29.00;17.10;;;4.00;99.90;3.30;100835;;;;601528;238;24050;-78
2022/04/27 02:28:20;;;;;;;19.83;13.67;;;4.10;99.90;3.40;100837;;;;592160;238;24052;-79
2022/04/27 02:30:49;;;;;;;23.53;15.33;;;4.30;99.90;3.40;100838;;;;601580;238;24099;-78
2022/04/27 02:33:17;;;;;;;28.97;16.00;;;4.30;99.90;3.50;100837;;;;601275;238;24077;-80
2022/04/27 02:35:46;;;;;;;26.53;15.30;;;4.40;99.90;3.60;100844;;;;601400;237;24077;-79
2022/04/27 02:38:14;;;;;;;22.57;13.23;;;4.40;99.90;3.60;100844;;;;601312;238;24074;-79
2022/04/27 02:40:45;;;;;;;21.57;13.23;;;4.50;99.90;3.70;100848;;;;601745;238;24124;-79
2022/04/27 02:43:09;;;;;;;25.00;14.60;;;4.60;99.90;3.80;100847;;;;591689;238;24111;-80
2022/04/27 02:45:37;;;;;;;21.70;14.87;;;4.60;99.90;3.80;100849;;;;591923;238;24119;-80
2022/04/27 02:48:06;;;;;;;31.40;16.27;;;4.70;99.90;3.80;100858;;;;592047;238;24152;-79
2022/04/27 02:53:19;;;;;;;26.60;15.57;;;4.70;99.90;3.90;100857;;;;591997;238;24066;-79
2022/04/27 02:55:50;;;;;;;25.67;15.27;;;4.80;99.90;4.00;100865;;;;601256;238;24073;-79
2022/04/27 02:58:16;;;;;;;24.40;14.83;;;4.80;99.90;4.00;100868;;;;601204;238;24031;-79
2022/04/27 03:00:47;;;;;;;29.03;14.13;;;4.80;99.90;4.00;100865;;;;601498;238;24041;-80
2022/04/27 03:03:14;;;;;;;23.10;15.03;;;4.80;99.90;4.00;100871;;;;601545;238;24033;-79
2022/04/27 03:05:43;;;;;;;28.97;12.57;;;4.90;99.90;4.00;100861;;;;592519;237;24088;-79
2022/04/27 03:08:11;;;;;;;23.57;13.90;;;4.90;99.90;4.00;100870;;;;602810;238;24123;-80
2022/04/27 03:10:41;;;;;;;26.13;14.20;;;4.90;99.90;4.00;100880;;;;593295;238;24075;-79
2022/04/27 03:13:06;;;;;;;21.67;14.27;;;4.90;99.90;4.00;100877;;;;593621;238;24055;-80
2022/04/27 03:15:35;;;;;;;25.57;14.87;;;4.80;99.90;4.00;100882;;;;593364;238;24098;-81
2022/04/27 03:18:19;;;;;;;19.80;13.87;;;4.80;99.90;4.00;100877;;;;602694;238;24038;-80
2022/04/27 03:20:46;;;;;;;25.03;14.73;;;4.80;99.90;4.00;100886;;;;602315;238;24061;-80
2022/04/27 03:23:13;;;;;;;25.23;14.93;;;4.80;99.90;4.00;100887;;;;593115;238;24025;-80
2022/04/27 03:25:44;;;;;;;28.10;14.47;;;4.80;99.90;4.00;100893;;;;602357;238;24088;-80
2022/04/27 03:28:12;;;;;;;22.37;15.23;;;4.80;99.90;4.00;100891;;;;592668;238;24081;-80
2022/04/27 03:30:37;;;;;;;24.20;13.87;;;4.80;99.90;4.00;100897;;;;601782;238;24108;-81
2022/04/27 03:33:05;;;;;;;24.27;14.60;;;4.90;99.90;4.00;100896;;;;592849;238;24014;-78
2022/04/27 03:35:37;;;;;;;27.00;14.83;;;4.90;99.90;4.10;100909;;;;601805;237;24057;-79
2022/04/27 03:38:03;;;;;;;24.33;14.37;;;4.90;99.90;4.10;100909;;;;587835;238;24052;-80
2022/04/27 03:40:33;;;;;;;25.03;14.40;;;4.90;99.90;4.10;100931;;;;601438;238;24026;-80
2022/04/27 03:42:57;;;;;;;27.33;15.43;;;4.90;99.90;4.10;100932;;;;592084;238;24073;-80
2022/04/27 03:45:25;;;;;;;24.80;14.43;;;4.90;99.90;4.10;100927;;;;601418;237;24027;-80
2022/04/27 03:47:53;;;;;;;25.00;15.43;;;5.00;99.90;4.10;100933;;;;591913;238;24089;-80
2022/04/27 03:50:21;;;;;;;25.40;14.70;;;4.90;99.90;4.20;100920;;;;601422;238;24073;-79
2022/04/27 03:52:49;;;;;;;28.77;15.83;;;5.00;99.90;4.20;100934;;;;601321;238;24035;-80
2022/04/27 03:55:17;;;;;;;26.47;15.17;;;5.00;99.90;4.30;100938;;;;601830;238;24044;-78
2022/04/27 03:57:45;;;;;;;25.87;15.10;;;5.00;99.90;4.30;100933;;;;601826;238;24037;-79
2022/04/27 04:00:16;;;;;;;24.90;16.23;;;5.10;99.90;4.30;100944;;;;601702;238;24026;-80
2022/04/27 04:02:42;;;;;;;22.30;13.87;;;5.20;99.90;4.40;100943;;;;592229;238;25143;-80
2022/04/27 04:05:10;;;;;;;21.23;11.10;;;5.20;99.90;4.40;100945;;;;601789;238;24105;-80
2022/04/27 04:07:39;;;;;;;15.00;9.97;;;5.20;99.90;4.50;100943;;;;601802;238;24056;-79
2022/04/27 04:10:06;;;;;;;15.13;9.60;;;5.30;99.90;4.50;100948;;;;591825;238;24105;-79
2022/04/27 04:12:34;;;;;;;8.73;6.50;;;5.30;99.90;4.60;100948;;;;592368;238;24043;-79
2022/04/27 04:15:03;;;;;;;11.77;6.20;;;5.40;99.90;4.60;100954;;;;591567;238;24084;-79
2022/04/27 04:17:31;;;;;;;7.30;5.73;;;5.30;99.90;4.60;100954;;;;601787;237;24068;-79
2022/04/27 04:19:58;;;;;;;5.67;4.57;;;5.40;99.90;4.60;100957;;;;592958;238;24066;-79
2022/04/27 04:22:26;;;;;;;9.93;6.20;;;5.40;99.90;4.60;100958;;;;592488;238;24060;-79
2022/04/27 04:30:29;;;;;;;12.37;5.63;;;5.40;99.90;4.60;100973;;;;597556;238;24084;-80
2022/04/27 04:32:57;;;;;;;9.17;6.43;;;5.40;99.90;4.70;100968;;;;597369;238;24084;-79
2022/04/27 04:35:22;;;;;;;8.23;6.87;;;5.50;99.90;4.70;100984;;;;592525;238;24046;-80
2022/04/27 04:37:50;;;;;;;8.83;6.67;;;5.50;99.90;4.80;100969;;;;592645;238;24052;-79
2022/04/27 04:40:18;;;;;;;11.13;7.43;;;5.60;99.90;4.90;100981;;;;592603;238;24052;-79
2022/04/27 04:42:46;;;;;;;9.30;7.07;;;5.60;99.90;5.00;100986;;;;592544;238;24117;-79
2022/04/27 04:45:16;;;;;;;11.17;7.37;;;5.80;99.90;5.10;100978;;;;592149;238;24107;-79
2022/04/27 04:47:44;;;;;;;8.03;6.53;;;5.90;99.90;5.20;100980;;;;602919;238;24043;-79
2022/04/27 04:50:15;;;;;;;11.07;8.30;;;6.00;99.90;5.40;100986;;;;602882;238;24110;-80
2022/04/27 04:52:40;;;;;;;11.27;9.07;;;6.20;99.90;5.50;100996;;;;602622;238;24058;-80
2022/04/27 04:55:10;;;;;;;9.67;7.43;;;6.30;99.90;5.60;101001;;;;602961;238;24137;-80
2022/04/27 04:57:35;;;;;;;10.73;7.13;;;6.40;99.90;5.70;101002;;;;602577;238;24021;-79
2022/04/27 05:00:06;;;;;;;9.07;7.53;;;6.50;99.90;5.80;100995;;;;602947;238;24084;-80
2022/04/27 05:02:34;;;;;;;10.83;6.70;;;6.60;99.90;5.90;100994;;;;602885;238;24084;-80
2022/04/27 05:05:05;;;;;;;9.93;6.17;;;6.70;99.90;6.00;101008;;;;602976;238;24076;-80
2022/04/27 05:07:35;;;;;;;7.97;6.40;;;6.80;99.90;6.10;101015;;;;602895;238;24056;-80
2022/04/27 05:10:07;;;;;;;10.10;7.80;;;6.90;99.90;6.30;101013;;;;602881;238;24073;-79
2022/04/27 05:12:35;;;;;;;8.50;6.67;;;7.10;99.90;6.40;101010;;;;602791;238;24061;-80
2022/04/27 05:14:59;;;;;;;11.10;6.40;;;7.20;99.90;6.50;101006;;;;602286;238;24038;-81
2022/04/27 05:17:27;;;;;;;8.93;6.30;;;7.30;99.90;6.60;101023;;;;602454;238;24070;-81
2022/04/27 05:19:55;;;;;;;7.00;5.73;;;7.40;99.90;6.60;101025;;;;602890;238;24058;-80
2022/04/27 05:22:23;;;;;;;9.47;5.53;;;7.50;99.90;6.70;101025;;;;602443;238;24079;-80
2022/04/27 05:24:51;;;;;;;9.53;6.63;;;7.50;99.90;6.70;101033;;;;602334;238;24061;-80
2022/04/27 05:27:20;;;;;;;6.73;5.80;;;7.60;99.90;6.80;101036;;;;602511;238;24047;-80
2022/04/27 05:32:45;;;;;;;8.73;5.67;;;7.60;99.90;6.80;101035;;;;604176;238;24084;-79
2022/04/27 05:35:13;;;;;;;6.60;6.00;;;7.70;99.90;6.90;101039;;;;603034;238;24057;-80
2022/04/27 05:37:41;;;;;;;7.23;5.97;;;7.70;99.90;6.90;101040;;;;603682;238;24070;-80
2022/04/27 05:40:09;;;;;;;5.83;5.23;;;7.70;99.90;7.00;101048;;;;603477;238;24042;-80
2022/04/27 05:42:36;;;;;;;9.07;5.97;;;7.80;99.90;7.20;101040;;;;603463;238;24088;-80
2022/04/27 05:45:04;;;;;;;7.63;4.60;;;7.90;99.90;7.30;101040;;;;603485;238;24062;-80
2022/04/27 05:47:32;;;;;;;6.77;4.57;;;8.10;99.90;7.40;101054;;;;603426;238;24056;-80
2022/04/27 05:50:00;;;;;;;7.57;4.07;;;8.20;99.90;7.50;101046;;;;603139;238;24031;-80
2022/04/27 05:52:28;;;;;;;5.93;4.30;;;8.30;99.90;7.60;101046;;;;602842;238;24047;-80
2022/04/27 05:54:56;;;;;;;5.87;3.93;;;8.30;99.90;7.70;101060;;;;602942;238;24080;-80
2022/04/27 05:57:24;;;;;;;4.57;3.80;;;8.50;99.90;7.80;101061;;;;602750;238;24056;-80
2022/04/27 05:59:51;;;;;;;8.87;3.93;;;8.50;99.90;7.80;101059;;;;602884;238;24081;-79
2022/04/27 06:02:19;;;;;;;6.27;3.67;;;8.60;99.90;7.70;101066;;;;602810;238;24082;-79
2022/04/27 06:04:47;;;;;;;3.37;2.93;;;8.60;99.90;7.80;101067;;;;602608;238;24094;-79
2022/04/27 06:07:15;;;;;;;5.90;2.90;;;8.60;99.90;7.80;101072;;;;602581;238;24120;-79
2022/04/27 06:09:43;;;;;;;7.50;3.23;;;8.60;99.90;7.80;101071;;;;602424;238;24092;-79
2022/04/27 06:12:11;;;;;;;5.53;3.03;;;8.60;99.90;7.80;101069;;;;602581;238;24039;-79
2022/04/27 06:14:39;;;;;;;3.10;2.50;;;8.70;99.90;7.90;101078;;;;602872;238;24058;-78
2022/04/27 06:17:08;;;;;;;3.17;2.60;;;8.70;99.90;8.00;101080;;;;602878;238;24039;-79
2022/04/27 06:19:35;;;;;;;3.23;2.80;;;8.80;99.90;8.10;101089;;;;602373;238;24092;-80
2022/04/27 06:22:03;;;;;;;5.23;2.63;;;8.90;99.90;8.30;101094;;;;602461;238;24089;-79
2022/04/27 06:24:31;;;;;;;6.37;2.80;;;9.00;99.90;8.40;101089;;;;602571;238;24047;-80
2022/04/27 06:26:59;;;;;;;3.07;2.83;;;9.20;99.90;8.40;101100;;;;602327;238;24083;-80
2022/04/27 06:29:27;;;;;;;4.63;3.00;;;9.20;99.90;8.40;101109;;;;602629;238;24063;-80
2022/04/27 06:31:55;;;;;;;5.97;2.80;;;9.20;99.90;8.40;101106;;;;602560;238;24074;-80
2022/04/27 06:34:22;;;;;;;3.20;2.10;;;9.20;99.90;8.30;101105;;;;602388;238;24049;-79
2022/04/27 06:36:50;;;;;;;5.83;3.10;;;9.10;99.90;8.40;101110;;;;602557;238;24101;-79
2022/04/27 06:39:18;;;;;;;4.60;2.90;;;9.20;99.90;8.50;101129;;;;602486;238;24089;-79
2022/04/27 06:41:47;;;;;;;3.77;2.90;;;9.40;99.90;8.60;101123;;;;603926;236;24099;-80
2022/04/27 06:44:17;;;;;;;5.17;3.33;;;9.40;99.90;8.80;101120;;;;603676;238;24094;-78
2022/04/27 06:46:43;;;;;;;4.50;2.77;;;9.50;99.90;8.90;101112;;;;603480;237;24065;-79
2022/04/27 06:49:10;;;;;;;10.33;3.27;;;9.70;99.90;9.30;101119;;;;603380;238;24046;-79
2022/04/27 06:51:38;;;;;;;6.07;3.47;;;10.10;99.90;9.60;101123;;;;603031;238;24046;-78
2022/04/27 06:54:06;;;;;;;9.07;3.57;;;10.40;99.90;9.70;101123;;;;603170;238;24061;-79
2022/04/27 06:56:34;;;;;;;7.30;3.47;;;10.50;99.90;9.90;101125;;;;603504;238;24053;-79
2022/04/27 06:59:06;;;;;;;3.50;3.20;;;10.60;99.90;10.20;101129;;;;603341;238;24032;-80
2022/04/27 07:01:30;;;;;;;5.27;2.57;;;11.00;99.90;10.20;101147;;;;602678;238;24053;-80
2022/04/27 07:04:05;;;;;;;5.10;3.03;;;11.10;99.90;10.20;101139;;;;603249;238;24044;-80
2022/04/27 07:06:26;;;;;;;3.17;2.87;;;11.10;99.90;10.00;101131;;;;602497;238;24071;-79
2022/04/27 07:08:53;;;;;;;4.87;3.00;;;11.00;99.90;9.90;101150;;;;603221;238;24081;-79
2022/04/27 07:11:21;;;;;;;6.17;3.70;;;10.80;99.90;9.90;101146;;;;603124;238;24092;-80
2022/04/27 07:13:49;;;;;;;5.67;3.20;;;10.80;99.90;10.20;101139;;;;603252;238;24038;-80
2022/04/27 07:16:18;;;;;;;5.80;2.93;;;11.00;99.90;10.20;101149;;;;603200;238;24079;-79
2022/04/27 07:18:45;;;;;;;6.77;3.07;;;11.10;99.90;10.20;101148;;;;602464;238;24074;-80
2022/04/27 07:21:13;;;;;;;7.23;3.10;;;11.10;99.90;10.30;101153;;;;602465;238;24035;-80
2022/04/27 07:23:41;;;;;;;5.40;3.53;;;11.10;99.90;10.20;101161;;;;602593;238;24054;-80
2022/04/27 07:26:12;;;;;;;6.40;2.90;;;11.10;99.90;10.20;101152;;;;602507;238;24082;-79
2022/04/27 07:28:41;;;;;;;6.07;3.60;;;11.00;99.90;10.10;101159;;;;602340;238;24050;-80
2022/04/27 07:31:11;;;;;;;4.23;3.17;;;10.90;99.90;10.00;101163;;;;602518;238;24028;-80
2022/04/27 07:33:35;;;;;;;5.30;3.20;;;10.80;99.90;9.90;101164;;;;601969;238;24105;-80
2022/04/27 07:36:03;;;;;;;7.63;3.57;;;10.70;99.90;9.90;101165;;;;602913;238;24071;-81
2022/04/27 07:38:32;;;;;;;9.73;3.17;;;10.70;99.90;9.90;101171;;;;602816;238;24051;-80
2022/04/27 07:41:00;;;;;;;6.47;3.30;;;10.70;99.90;9.80;101176;;;;602951;238;24057;-80
2022/04/27 07:43:27;;;;;;;6.93;2.50;;;10.60;99.90;9.60;101182;;;;602903;238;24050;-80
2022/04/27 07:45:55;;;;;;;5.57;2.53;;;10.50;99.90;9.40;101179;;;;602946;238;24080;-79
2022/04/27 07:48:24;;;;;;;4.10;2.40;;;10.20;99.90;9.30;101179;;;;602942;238;24047;-80
2022/04/27 07:50:52;;;;;;;2.97;2.60;;;10.10;99.90;9.40;101194;;;;602415;238;24063;-80
2022/04/27 07:53:20;;;;;;;8.60;2.27;;;10.10;99.90;9.60;101189;;;;604219;236;24092;-81
2022/04/27 07:55:48;;;;;;;2.93;1.83;;;10.30;99.90;9.80;101184;;;;604124;238;24041;-81
2022/04/27 07:58:15;;;;;;;4.33;2.47;;;10.50;99.90;10.10;101185;;;;603852;238;24085;-80
2022/04/27 08:00:43;;;;;;;4.53;2.00;;;10.80;99.90;10.40;101195;;;;603765;238;24105;-82
2022/04/27 08:03:12;;;;;;;2.30;2.10;;;11.60;99.90;11.00;101186;;;;603503;238;24096;-80
2022/04/27 08:05:44;;;;;;;8.27;2.40;;;11.60;99.90;12.60;101190;;;;598255;238;34908;-81
2022/04/27 08:08:11;;;;;;;3.83;1.80;;;12.80;99.90;13.90;101202;;;;603012;238;24055;-80
2022/04/27 08:10:37;;;;;;;3.00;1.90;;;15.10;99.90;14.50;101203;;;;602763;238;24055;-79
2022/04/27 08:13:04;;;;;;;2.30;1.33;;;15.10;99.90;14.80;101200;;;;603064;238;24058;-80
2022/04/27 08:15:32;;;;;;;4.87;1.90;;;15.60;99.90;15.70;101200;;;;602920;238;24046;-81
2022/04/27 08:18:00;;;;;;;3.97;2.03;;;16.30;99.90;16.50;101211;;;;602818;238;24088;-81
2022/04/27 08:23:21;;;;;;;4.27;1.67;;;17.50;94.30;16.20;101219;;;;603464;238;24125;-80
2022/04/27 08:25:45;;;;;;;5.33;1.57;;;17.40;91.30;16.00;101219;;;;602928;238;24133;-82
2022/04/27 08:28:17;;;;;;;2.90;1.30;;;17.10;91.30;16.50;101218;;;;603150;238;24043;-81
2022/04/27 08:30:44;;;;;;;4.47;1.30;;;17.40;91.10;16.50;101228;;;;602638;238;24027;-80
2022/04/27 08:33:12;;;;;;;4.60;1.57;;;17.40;89.80;17.50;101223;;;;602955;238;24053;-81
2022/04/27 08:35:40;;;;;;;6.57;1.37;;;18.10;85.70;19.10;101222;;;;602727;238;24023;-81
2022/04/27 08:38:08;;;;;;;2.10;1.27;;;19.60;77.50;20.10;101230;;;;602870;238;24053;-81
2022/04/27 08:40:35;;;;;;;4.77;1.70;;;20.90;69.10;22.10;101229;;;;602915;238;24066;-80
2022/04/27 08:43:06;;;;;;;2.87;1.40;;;22.60;64.20;24.20;101228;;;;602970;238;23056;-82
2022/04/27 08:45:33;;;;;;;1.50;1.40;;;26.20;52.50;25.40;101239;;;;602873;238;24105;-81
2022/04/27 08:48:00;;;;;;;10.13;2.03;;;26.10;52.40;26.80;101247;;;;603078;238;24032;-82
2022/04/27 08:50:28;;;;;;;4.43;1.93;;;27.50;50.00;27.40;101245;;;;602701;238;23056;-82
2022/04/27 08:52:56;;;;;;;3.30;1.60;;;28.70;45.80;27.50;101252;;;;602186;238;23085;-81
2022/04/27 08:55:27;;;;;;;1.20;1.20;;;28.50;43.50;26.50;101251;;;;602657;238;24128;-80
2022/04/27 08:57:52;;;;;;;2.53;1.30;;;28.50;43.40;26.00;101254;;;;602559;238;24047;-81
2022/04/27 09:00:20;;;;;;;1.73;1.63;;;28.00;43.40;25.00;101251;;;;602542;238;23071;-81
2022/04/27 09:02:52;;;;;;;4.30;2.03;;;27.20;44.20;26.30;101243;;;;602563;238;23093;-81
2022/04/27 09:05:17;;;;;;;4.00;1.70;;;28.00;44.10;26.80;101261;;;;603638;236;24018;-81
2022/04/27 09:07:54;;;;;;;2.23;1.50;;;28.00;44.00;26.30;101255;;;;603813;238;24026;-80
2022/04/27 09:10:21;;;;;;;2.03;1.57;;;27.90;43.20;25.70;101264;;;;603317;238;23056;-80
2022/04/27 09:12:57;;;;;;;3.83;1.40;;;27.20;43.60;25.60;101266;;;;603366;238;23099;-80
2022/04/27 09:15:27;;;;;;;4.23;1.40;;;27.10;43.50;24.60;101273;;;;602661;238;23041;-80
2022/04/27 09:20:47;;;;;;;11.47;1.73;;;25.30;44.50;24.30;101277;;;;603627;238;24031;-80
2022/04/27 09:23:39;;;;;;;4.80;1.70;;;25.50;44.30;24.00;101274;;;;603122;238;24092;-80
2022/04/27 09:26:22;;;;;;;4.00;1.37;;;25.40;43.80;23.30;101281;;;;603134;238;24050;-81
2022/04/27 09:28:48;;;;;;;5.50;1.50;;;24.80;44.60;22.40;101288;;;;602669;238;24061;-81
2022/04/27 09:31:38;;;;;;;1.63;1.17;;;24.00;44.90;22.10;101298;;;;602333;238;24033;-80
2022/04/27 09:34:03;;;;;;;1.67;1.50;;;22.80;45.90;21.20;101293;;;;597061;238;24023;-80
2022/04/27 09:36:30;;;;;;;1.60;1.13;;;22.70;45.80;19.50;101293;;;;602745;238;24032;-81
2022/04/27 09:38:58;;;;;;;2.10;1.27;;;21.50;46.80;18.40;101291;;;;602689;238;24041;-81
2022/04/27 09:41:42;;;;;;;7.07;1.37;;;20.20;49.40;18.60;101303;;;;602561;238;24104;-80
2022/04/27 09:44:10;;;;;;;4.07;1.20;;;19.80;50.30;18.70;101298;;;;602181;238;23059;-80
2022/04/27 09:46:44;;;;;;;6.40;1.43;;;19.80;49.60;19.30;101298;;;;601204;238;24076;-81
2022/04/27 09:49:11;;;;;;;3.90;1.00;;;20.30;49.20;19.30;101295;;;;602077;238;24097;-80
2022/04/27 09:51:36;;;;;;;2.83;0.90;;;20.60;48.30;19.10;101304;;;;602616;238;24047;-80
2022/04/27 09:54:04;;;;;;;6.43;1.10;;;20.40;48.00;19.80;101303;;;;602848;238;24070;-81
2022/04/27 09:56:38;;;;;;;11.90;2.17;;;20.90;47.40;19.90;101295;;;;602848;238;24096;-80
2022/04/27 09:59:07;;;;;;;3.60;1.50;;;21.30;46.40;19.60;101310;;;;602875;238;24025;-80
2022/04/27 10:01:36;;;;;;;1.50;1.40;;;21.20;46.90;19.50;101318;;;;602798;238;23064;-80
2022/04/27 10:04:04;;;;;;;11.43;1.70;;;21.00;47.30;19.30;101307;;;;602415;238;24055;-81
2022/04/27 10:06:32;;;;;;;5.70;1.67;;;20.70;48.50;19.30;101305;;;;602338;238;24047;-80
2022/04/27 10:09:00;;;;;;;2.03;1.53;;;20.60;47.40;19.40;101316;;;;602462;238;23059;-81
2022/04/27 10:11:30;;;;;;;6.40;1.60;;;20.50;47.30;20.30;101328;;;;602392;238;24028;-80
2022/04/27 10:13:59;;;;;;;7.83;1.33;;;21.40;46.30;20.90;101313;;;;602532;238;24020;-80
2022/04/27 10:16:24;;;;;;;4.63;1.30;;;22.70;42.60;21.10;101326;;;;603493;236;24062;-80
2022/04/27 10:18:55;;;;;;;3.17;1.23;;;22.60;42.60;20.90;101323;;;;603771;238;24096;-81
2022/04/27 10:21:56;;;;;;;6.07;1.57;;;22.70;42.40;20.70;101316;;;;603478;238;24027;-80
2022/04/27 10:24:09;;;;;;;2.43;1.50;;;22.70;42.50;20.00;101318;;;;601514;237;24059;-80
2022/04/27 10:26:40;;;;;;;6.57;1.33;;;22.20;43.00;19.70;101314;;;;603264;238;24055;-79
2022/04/27 10:29:05;;;;;;;5.07;1.47;;;21.60;43.80;19.70;101317;;;;603037;237;24022;-81
2022/04/27 10:31:48;;;;;;;4.60;1.77;;;21.60;43.80;19.20;101312;;;;603468;238;24063;-80
2022/04/27 10:34:25;;;;;;;9.10;1.40;;;20.50;45.50;18.40;101318;;;;603298;238;24056;-77
2022/04/27 10:36:58;;;;;;;8.93;1.40;;;20.50;45.50;17.30;101313;;;;602843;238;24066;-80
2022/04/27 10:39:26;;;;;;;4.87;1.43;;;19.50;46.70;16.70;101309;;;;601901;238;24043;-81
2022/04/27 10:42:03;;;;;;;1.63;1.10;;;18.60;48.80;15.90;101306;;;;602633;238;24071;-80
2022/04/27 10:44:50;;;;;;;5.70;1.27;;;16.70;51.30;15.00;101306;;;;601700;238;24075;-80
2022/04/27 10:47:19;;;;;;;4.07;1.00;;;15.40;52.80;13.70;101321;;;;602765;238;24050;-80
2022/04/27 10:49:47;;;;;;;5.53;1.47;;;15.30;52.70;12.90;101304;;;;602800;238;24044;-80
2022/04/27 10:52:15;;;;;;;5.17;1.30;;;14.40;54.60;12.50;101301;;;;602569;238;24034;-80
2022/04/27 10:54:47;;;;;;;1.97;1.00;;;13.10;57.00;12.10;101309;;;;602498;238;24118;-81
2022/04/27 10:57:18;;;;;;;2.30;0.83;;;13.10;57.00;11.60;101304;;;;602120;238;24041;-79
2022/04/27 10:59:59;;;;;;;1.10;0.90;;;12.60;58.00;11.20;101304;;;;602589;238;24069;-79
2022/04/27 11:02:37;;;;;;;4.60;1.37;;;11.80;60.60;10.90;101314;;;;602379;238;24047;-79
2022/04/27 11:05:14;;;;;;;5.20;1.10;;;11.70;59.80;10.80;101311;;;;602633;238;24061;-80
2022/04/27 11:07:59;;;;;;;5.57;1.37;;;11.60;61.40;10.70;101302;;;;602531;238;24027;-80
2022/04/27 11:10:30;;;;;;;3.27;0.80;;;11.40;62.10;10.60;101295;;;;602182;238;24109;-80
2022/04/27 11:12:58;;;;;;;3.30;0.93;;;11.30;61.00;10.60;101293;;;;602554;238;24085;-81
2022/04/27 11:15:26;;;;;;;6.63;1.17;;;11.30;61.10;10.80;101285;;;;602738;238;24098;-81
2022/04/27 11:18:02;;;;;;;2.80;1.20;;;11.40;61.40;11.00;101292;;;;602451;238;24116;-79
2022/04/27 11:20:36;;;;;;;2.40;0.90;;;11.70;61.60;11.20;101295;;;;602679;238;24058;-79
2022/04/27 11:23:07;;;;;;;5.83;1.30;;;11.90;60.30;11.40;101291;;;;602944;238;24081;-80
2022/04/27 11:25:36;;;;;;;10.27;2.07;;;12.10;59.70;11.50;101284;;;;602663;238;24085;-80
2022/04/27 11:28:07;;;;;;;5.20;2.03;;;12.40;59.60;11.60;101287;;;;604220;236;24072;-80
2022/04/27 11:30:39;;;;;;;2.40;1.20;;;12.30;59.50;11.70;101275;;;;604164;238;24057;-82
2022/04/27 11:33:04;;;;;;;6.53;1.30;;;12.40;60.40;11.70;101282;;;;603345;237;24019;-81
2022/04/27 11:35:41;;;;;;;3.33;1.20;;;12.40;60.30;11.50;101283;;;;603905;238;24097;-81
2022/04/27 11:38:12;;;;;;;1.23;0.73;;;12.30;60.70;11.40;101286;;;;603532;238;24030;-80
2022/04/27 11:40:42;;;;;;;1.33;1.00;;;12.20;61.50;11.30;101278;;;;601175;238;24096;-81